createdAt,value
2022-12-18T00:01:32.454Z,24.50
2022-12-18T00:04:00.380Z,21.10
2022-12-18T00:06:29.472Z,20.83
2022-12-18T00:08:59.545Z,19.23
2022-12-18T00:11:29.894Z,21.67
2022-12-18T00:13:58.559Z,21.33
2022-12-18T00:16:27.500Z,19.27
2022-12-18T00:18:56.264Z,21.13
2022-12-18T00:21:23.290Z,18.37
2022-12-18T00:23:51.462Z,16.10
2022-12-18T00:26:24.063Z,17.50
2022-12-18T00:28:55.093Z,21.03
2022-12-18T00:31:24.882Z,16.43
2022-12-18T00:33:57.809Z,17.70
2022-12-18T00:36:28.901Z,15.40
2022-12-18T00:38:57.779Z,16.80
2022-12-18T00:41:44.138Z,17.30
2022-12-18T00:44:13.697Z,13.73
2022-12-18T00:46:40.910Z,19.40
2022-12-18T00:49:07.984Z,19.00
2022-12-18T00:51:35.107Z,17.80
2022-12-18T00:54:02.472Z,215.33
2022-12-18T00:56:29.451Z,19.83
2022-12-18T00:58:56.405Z,19.07
2022-12-18T01:01:23.622Z,21.43
2022-12-18T01:03:50.735Z,18.87
2022-12-18T01:06:17.873Z,16.67
2022-12-18T01:08:45.237Z,16.33
2022-12-18T01:11:20.447Z,17.47
2022-12-18T01:13:47.478Z,17.27
2022-12-18T01:16:16.151Z,21.20
2022-12-18T01:18:43.264Z,18.07
2022-12-18T01:21:12.883Z,20.27
2022-12-18T01:23:40.414Z,15.40
2022-12-18T01:26:13.847Z,20.77
2022-12-18T01:28:41.114Z,17.03
2022-12-18T01:31:40.573Z,18.10
2022-12-18T01:34:07.805Z,19.93
2022-12-18T01:36:38.074Z,20.47
2022-12-18T01:39:08.315Z,17.37
2022-12-18T01:41:53.842Z,19.13
2022-12-18T01:44:48.668Z,21.00
2022-12-18T01:47:22.910Z,19.07
2022-12-18T01:49:50.168Z,18.80
2022-12-18T01:52:19.192Z,16.53
2022-12-18T01:54:46.876Z,19.30
2022-12-18T01:57:13.884Z,20.80
2022-12-18T01:59:43.867Z,21.73
2022-12-18T02:02:11.053Z,19.23
2022-12-18T02:04:38.115Z,20.07
2022-12-18T02:07:10.899Z,19.20
2022-12-18T02:09:51.766Z,20.77
2022-12-18T02:12:25.587Z,23.00
2022-12-18T02:15:12.884Z,23.37
2022-12-18T02:17:47.829Z,19.60
2022-12-18T02:20:37.383Z,20.87
2022-12-18T02:23:14.549Z,22.60
2022-12-18T02:25:56.926Z,24.47
2022-12-18T02:28:29.412Z,21.53
2022-12-18T02:31:02.295Z,24.90
2022-12-18T02:33:31.770Z,21.43
2022-12-18T02:36:00.580Z,18.70
2022-12-18T02:38:30.954Z,18.73
2022-12-18T02:41:04.463Z,25.97
2022-12-18T02:43:31.916Z,23.47
2022-12-18T02:46:02.743Z,25.20
2022-12-18T02:48:36.132Z,21.27
2022-12-18T02:51:24.895Z,22.40
2022-12-18T02:54:02.240Z,25.93
2022-12-18T02:56:55.456Z,23.30
2022-12-18T02:59:40.646Z,28.00
2022-12-18T03:02:27.562Z,20.87
2022-12-18T03:05:20.493Z,24.00
2022-12-18T03:07:54.162Z,25.33
2022-12-18T03:10:28.844Z,25.97
2022-12-18T03:13:15.279Z,22.97
2022-12-18T03:15:48.258Z,28.40
2022-12-18T03:18:22.838Z,21.57
2022-12-18T03:20:52.345Z,17.87
2022-12-18T03:23:26.569Z,20.87
2022-12-18T03:26:03.026Z,24.17
2022-12-18T03:28:37.880Z,20.33
2022-12-18T03:31:08.247Z,21.43
2022-12-18T03:33:48.215Z,24.67
2022-12-18T03:36:16.201Z,22.83
2022-12-18T03:38:43.375Z,24.53
2022-12-18T03:41:11.000Z,19.77
2022-12-18T03:44:05.108Z,20.37
2022-12-18T03:46:39.339Z,22.97
2022-12-18T03:49:16.082Z,17.40
2022-12-18T03:52:01.039Z,18.40
2022-12-18T03:54:30.213Z,17.33
2022-12-18T03:57:19.404Z,18.47
2022-12-18T03:59:53.224Z,23.70
2022-12-18T04:02:26.184Z,19.25
2022-12-18T04:04:56.990Z,15.60
2022-12-18T04:07:25.243Z,20.00
2022-12-18T04:09:57.149Z,11.40
2022-12-18T04:12:29.874Z,13.77
2022-12-18T04:14:57.484Z,12.60
2022-12-18T04:17:25.076Z,18.40
2022-12-18T04:19:52.266Z,19.90
2022-12-18T04:22:19.353Z,13.47
2022-12-18T04:24:51.394Z,16.90
2022-12-18T04:27:27.810Z,17.55
2022-12-18T04:29:55.007Z,21.87
2022-12-18T04:32:21.968Z,18.20
2022-12-18T04:34:49.312Z,19.93
2022-12-18T04:37:16.412Z,16.33
2022-12-18T04:39:44.287Z,36.87
2022-12-18T04:42:19.621Z,18.67
2022-12-18T04:44:46.670Z,17.23
2022-12-18T04:47:13.558Z,21.37
2022-12-18T04:49:40.535Z,18.80
2022-12-18T04:52:08.778Z,18.30
2022-12-18T04:54:35.749Z,15.53
2022-12-18T04:57:02.745Z,11.60
2022-12-18T04:59:29.860Z,18.30
2022-12-18T05:01:56.892Z,15.70
2022-12-18T05:04:23.946Z,20.80
2022-12-18T05:06:50.910Z,22.37
2022-12-18T05:09:17.802Z,14.30
2022-12-18T05:11:47.685Z,17.77
2022-12-18T05:14:14.726Z,12.33
2022-12-18T05:16:41.749Z,17.67
2022-12-18T05:19:08.628Z,16.47
2022-12-18T05:21:35.553Z,18.13
2022-12-18T05:24:02.443Z,12.80
2022-12-18T05:26:29.430Z,20.50
2022-12-18T05:28:56.323Z,19.77
2022-12-18T05:31:23.334Z,13.40
2022-12-18T05:33:50.387Z,17.53
2022-12-18T05:36:17.290Z,20.03
2022-12-18T05:38:44.203Z,14.90
2022-12-18T05:41:11.271Z,15.50
2022-12-18T05:43:40.150Z,25.43
2022-12-18T05:46:10.148Z,16.87
2022-12-18T05:48:37.117Z,14.43
2022-12-18T05:51:08.662Z,16.40
2022-12-18T05:53:37.931Z,20.23
2022-12-18T05:56:08.225Z,8.63
2022-12-18T05:58:35.620Z,10.93
2022-12-18T06:01:11.458Z,25.30
2022-12-18T06:03:39.171Z,21.83
2022-12-18T06:06:24.863Z,12.53
2022-12-18T06:08:52.446Z,18.20
2022-12-18T06:11:22.061Z,23.23
2022-12-18T06:13:58.219Z,17.47
2022-12-18T06:16:26.999Z,20.53
2022-12-18T06:18:54.294Z,24.87
2022-12-18T06:21:21.219Z,24.67
2022-12-18T06:23:48.166Z,33.53
2022-12-18T06:26:15.758Z,32.07
2022-12-18T06:28:43.187Z,19.83
2022-12-18T06:31:10.931Z,26.73
2022-12-18T06:33:39.079Z,30.87
2022-12-18T06:36:12.071Z,25.00
2022-12-18T06:38:41.468Z,21.70
2022-12-18T06:41:17.301Z,9.33
2022-12-18T06:43:45.005Z,21.23
2022-12-18T06:46:12.803Z,22.87
2022-12-18T06:48:40.598Z,18.07
2022-12-18T06:51:07.794Z,17.73
2022-12-18T06:53:34.727Z,21.97
2022-12-18T06:56:10.425Z,25.20
2022-12-18T06:58:40.858Z,13.98
2022-12-18T07:01:11.091Z,21.83
2022-12-18T07:03:40.105Z,21.83
2022-12-18T07:06:07.707Z,29.43
2022-12-18T07:08:34.937Z,16.90
2022-12-18T07:11:04.404Z,25.87
2022-12-18T07:13:31.416Z,28.10
2022-12-18T07:16:08.554Z,25.20
2022-12-18T07:18:38.227Z,22.63
2022-12-18T07:21:10.514Z,25.23
2022-12-18T07:23:38.116Z,23.53
2022-12-18T07:26:07.461Z,26.20
2022-12-18T07:28:34.969Z,16.20
2022-12-18T07:31:07.072Z,29.27
2022-12-18T07:33:35.015Z,18.53
2022-12-18T07:36:04.695Z,26.07
2022-12-18T07:38:32.122Z,27.27
2022-12-18T07:41:03.900Z,31.97
2022-12-18T07:43:34.985Z,20.33
2022-12-18T07:46:01.958Z,43.37
2022-12-18T07:48:29.734Z,39.03
2022-12-18T07:51:02.076Z,30.33
2022-12-18T07:53:28.992Z,30.13
2022-12-18T07:56:26.143Z,44.13
2022-12-18T07:58:47.943Z,23.40
2022-12-18T08:01:16.055Z,43.57
2022-12-18T08:03:43.727Z,28.73
2022-12-18T08:06:11.124Z,15.67
2022-12-18T08:08:38.311Z,36.93
2022-12-18T08:11:05.527Z,30.43
2022-12-18T08:13:32.376Z,13.13
2022-12-18T08:16:00.606Z,22.80
2022-12-18T08:18:27.642Z,23.17
2022-12-18T08:20:55.528Z,26.50
2022-12-18T08:23:22.752Z,36.00
2022-12-18T08:25:49.872Z,30.20
2022-12-18T08:28:16.820Z,28.67
2022-12-18T08:30:43.875Z,27.70
2022-12-18T08:33:10.917Z,31.83
2022-12-18T08:35:44.062Z,36.83
2022-12-18T08:38:12.644Z,36.93
2022-12-18T08:40:39.581Z,17.27
2022-12-18T08:43:25.015Z,31.13
2022-12-18T08:45:51.938Z,21.77
2022-12-18T08:48:22.451Z,26.63
2022-12-18T08:50:57.528Z,19.97
2022-12-18T08:53:25.203Z,23.80
2022-12-18T08:55:52.163Z,24.47
2022-12-18T08:58:19.128Z,27.00
2022-12-18T09:00:46.439Z,12.27
2022-12-18T09:03:18.303Z,31.53
2022-12-18T09:05:47.123Z,15.77
2022-12-18T09:08:14.056Z,28.70
2022-12-18T09:10:47.808Z,28.47
2022-12-18T09:13:16.371Z,21.57
2022-12-18T09:15:43.985Z,16.17
2022-12-18T09:18:10.991Z,25.37
2022-12-18T09:20:39.098Z,37.13
2022-12-18T09:23:06.860Z,13.37
2022-12-18T09:25:36.870Z,19.13
2022-12-18T09:28:06.812Z,26.03
2022-12-18T09:30:36.974Z,20.43
2022-12-18T09:33:04.236Z,22.90
2022-12-18T09:35:33.296Z,18.17
2022-12-18T09:38:00.629Z,17.70
2022-12-18T09:40:33.842Z,17.53
2022-12-18T09:43:05.299Z,26.97
2022-12-18T09:45:45.587Z,17.27
2022-12-18T09:48:32.279Z,17.97
2022-12-18T09:51:04.868Z,18.83
2022-12-18T09:53:36.306Z,16.37
2022-12-18T09:56:05.770Z,13.60
2022-12-18T09:58:46.383Z,11.97
2022-12-18T10:01:17.680Z,14.37
2022-12-18T10:03:45.524Z,23.93
2022-12-18T10:06:19.643Z,13.67
2022-12-18T10:08:46.468Z,16.10
2022-12-18T10:11:26.501Z,19.27
2022-12-18T10:13:58.202Z,9.27
2022-12-18T10:16:44.476Z,11.27
2022-12-18T10:19:42.500Z,25.70
2022-12-18T10:22:34.555Z,10.27
2022-12-18T10:25:24.656Z,13.10
2022-12-18T10:27:56.460Z,18.53
2022-12-18T10:30:25.594Z,27.10
2022-12-18T10:32:52.970Z,11.93
2022-12-18T10:35:21.904Z,14.13
2022-12-18T10:38:06.764Z,11.00
2022-12-18T10:40:48.222Z,5.27
2022-12-18T10:43:20.313Z,10.07
2022-12-18T10:46:11.230Z,8.97
2022-12-18T10:48:49.463Z,16.00
2022-12-18T10:51:32.532Z,17.80
2022-12-18T10:54:06.221Z,21.47
2022-12-18T10:56:38.155Z,13.03
2022-12-18T10:59:08.989Z,4.20
2022-12-18T11:01:53.376Z,7.37
2022-12-18T11:04:32.732Z,8.93
2022-12-18T11:07:02.530Z,16.93
2022-12-18T11:09:33.589Z,47.47
2022-12-18T11:12:03.982Z,5.67
2022-12-18T11:14:46.768Z,14.13
2022-12-18T11:17:26.203Z,14.43
2022-12-18T11:20:21.624Z,8.90
2022-12-18T11:23:06.678Z,24.10
2022-12-18T11:25:36.042Z,13.20
2022-12-18T11:28:31.162Z,7.90
2022-12-18T11:31:26.575Z,12.13
2022-12-18T11:34:28.131Z,10.20
2022-12-18T11:36:49.961Z,17.00
2022-12-18T11:39:36.366Z,16.30
2022-12-18T11:42:12.866Z,19.45
2022-12-18T11:44:46.142Z,20.48
2022-12-18T11:47:34.201Z,3.73
2022-12-18T11:50:03.786Z,4.53
2022-12-18T11:52:52.858Z,20.87
2022-12-18T11:55:23.590Z,26.43
2022-12-18T11:58:04.843Z,19.27
2022-12-18T12:00:32.109Z,6.60
2022-12-18T12:03:17.370Z,10.33
2022-12-18T12:05:55.287Z,15.23
2022-12-18T12:08:44.421Z,14.30
2022-12-18T12:11:35.858Z,19.50
2022-12-18T12:14:23.554Z,28.97
2022-12-18T12:17:23.058Z,33.30
2022-12-18T12:20:21.757Z,26.17
2022-12-18T12:22:51.999Z,17.93
2022-12-18T12:25:22.397Z,20.27
2022-12-18T12:28:13.405Z,20.53
2022-12-18T12:31:08.355Z,4.97
2022-12-18T12:33:41.389Z,17.10
2022-12-18T12:36:20.667Z,47.50
2022-12-18T12:38:56.311Z,37.40
2022-12-18T12:41:47.083Z,12.30
2022-12-18T12:44:25.229Z,21.67
2022-12-18T12:46:57.340Z,36.87
2022-12-18T12:49:28.694Z,17.80
2022-12-18T12:52:26.174Z,18.00
2022-12-18T12:57:46.690Z,8.37
2022-12-18T13:00:25.362Z,12.80
2022-12-18T13:03:21.243Z,24.67
2022-12-18T13:06:04.541Z,12.20
2022-12-18T13:08:51.999Z,45.43
2022-12-18T13:11:57.856Z,23.75
2022-12-18T13:14:34.702Z,30.25
2022-12-18T13:17:28.581Z,20.37
2022-12-18T13:20:06.029Z,43.00
2022-12-18T13:22:45.260Z,48.07
2022-12-18T13:25:33.965Z,37.57
2022-12-18T13:28:18.398Z,42.80
2022-12-18T13:30:58.867Z,46.07
2022-12-18T13:33:25.824Z,19.93
2022-12-18T13:36:02.904Z,18.30
2022-12-18T13:38:33.298Z,72.83
2022-12-18T13:41:21.630Z,66.47
2022-12-18T13:44:12.043Z,55.50
2022-12-18T13:46:48.101Z,53.60
2022-12-18T13:49:14.975Z,61.60
2022-12-18T13:51:45.598Z,61.70
2022-12-18T13:54:35.885Z,57.27
2022-12-18T13:57:04.884Z,49.67
2022-12-18T13:59:41.117Z,57.17
2022-12-18T14:02:16.136Z,31.63
2022-12-18T14:04:47.460Z,77.45
2022-12-18T14:07:23.451Z,47.20
2022-12-18T14:10:12.138Z,78.67
2022-12-18T14:13:01.009Z,78.47
2022-12-18T14:15:56.748Z,66.33
2022-12-18T14:18:46.101Z,74.17
2022-12-18T14:21:28.891Z,64.73
2022-12-18T14:24:20.011Z,42.20
2022-12-18T14:26:50.451Z,62.00
2022-12-18T14:29:24.182Z,60.97
2022-12-18T14:32:17.330Z,48.87
2022-12-18T14:34:53.231Z,48.43
2022-12-18T14:37:28.155Z,60.07
2022-12-18T14:40:11.037Z,74.50
2022-12-18T14:42:39.976Z,47.37
2022-12-18T14:45:41.858Z,56.17
2022-12-18T14:48:37.391Z,44.37
2022-12-18T14:51:25.456Z,51.80
2022-12-18T14:53:59.725Z,72.90
2022-12-18T14:56:30.426Z,63.13
2022-12-18T14:58:58.664Z,69.97
2022-12-18T15:01:33.408Z,54.13
2022-12-18T15:04:02.791Z,53.73
2022-12-18T15:06:32.081Z,64.60
2022-12-18T15:09:01.080Z,66.17
2022-12-18T15:11:47.160Z,67.63
2022-12-18T15:14:36.900Z,62.57
2022-12-18T15:17:08.115Z,61.67
2022-12-18T15:19:43.854Z,75.07
2022-12-18T15:22:24.536Z,60.97
2022-12-18T15:24:51.846Z,54.20
2022-12-18T15:27:28.085Z,58.90
2022-12-18T15:30:19.168Z,40.83
2022-12-18T15:32:47.085Z,47.63
2022-12-18T15:35:23.466Z,69.23
2022-12-18T15:37:53.035Z,60.30
2022-12-18T15:40:25.091Z,78.43
2022-12-18T15:43:13.983Z,52.17
2022-12-18T15:45:40.959Z,70.33
2022-12-18T15:48:22.586Z,78.77
2022-12-18T15:50:53.506Z,73.07
2022-12-18T15:53:20.883Z,73.07
2022-12-18T15:56:06.663Z,72.50
2022-12-18T15:58:34.365Z,57.50
2022-12-18T16:01:03.127Z,58.30
2022-12-18T16:03:30.351Z,91.87
2022-12-18T16:05:59.396Z,71.63
2022-12-18T16:08:27.123Z,76.70
2022-12-18T16:10:54.221Z,59.73
2022-12-18T16:13:21.702Z,82.13
2022-12-18T16:15:48.824Z,86.13
2022-12-18T16:18:16.097Z,81.23
2022-12-18T16:20:43.030Z,73.07
2022-12-18T16:23:09.906Z,70.00
2022-12-18T16:25:36.961Z,77.00
2022-12-18T16:28:03.930Z,70.13
2022-12-18T16:30:37.977Z,64.73
2022-12-18T16:33:07.689Z,76.93
2022-12-18T16:35:35.361Z,86.03
2022-12-18T16:38:02.384Z,66.20
2022-12-18T16:40:32.629Z,83.20
2022-12-18T16:42:59.537Z,84.33
2022-12-18T16:45:26.646Z,50.27
2022-12-18T16:47:53.515Z,81.73
2022-12-18T16:50:20.398Z,56.57
2022-12-18T16:52:47.363Z,57.37
2022-12-18T16:55:14.272Z,64.93
2022-12-18T16:57:41.244Z,65.53
2022-12-18T17:00:08.762Z,84.63
2022-12-18T17:02:36.797Z,76.17
2022-12-18T17:05:04.218Z,79.43
2022-12-18T17:07:31.262Z,72.43
2022-12-18T17:09:58.215Z,61.97
2022-12-18T17:12:26.815Z,49.00
2022-12-18T17:14:53.717Z,56.87
2022-12-18T17:17:22.738Z,76.13
2022-12-18T17:19:51.824Z,54.53
2022-12-18T17:22:19.707Z,50.67
2022-12-18T17:24:47.490Z,68.13
2022-12-18T17:27:14.540Z,60.60
2022-12-18T17:29:47.230Z,57.47
2022-12-18T17:32:15.486Z,60.47
2022-12-18T17:34:42.419Z,41.20
2022-12-18T17:37:09.747Z,59.10
2022-12-18T17:39:37.246Z,68.93
2022-12-18T17:42:05.330Z,65.47
2022-12-18T17:44:34.423Z,63.87
2022-12-18T17:47:01.638Z,54.37
2022-12-18T17:49:29.086Z,57.90
2022-12-18T17:51:56.157Z,80.00
2022-12-18T17:54:23.135Z,73.43
2022-12-18T17:56:50.092Z,61.83
2022-12-18T17:59:17.040Z,57.67
2022-12-18T18:01:45.167Z,44.63
2022-12-18T18:04:13.528Z,69.87
2022-12-18T18:06:40.997Z,62.23
2022-12-18T18:09:15.289Z,66.27
2022-12-18T18:12:04.162Z,42.72
2022-12-18T18:14:31.675Z,51.22
2022-12-18T18:17:04.103Z,59.20
2022-12-18T18:19:33.015Z,44.00
2022-12-18T18:21:59.978Z,41.67
2022-12-18T18:24:27.518Z,43.77
2022-12-18T18:26:55.699Z,53.43
2022-12-18T18:29:26.599Z,42.13
2022-12-18T18:31:54.236Z,41.00
2022-12-18T18:34:26.953Z,58.77
2022-12-18T18:36:53.942Z,64.27
2022-12-18T18:39:21.319Z,58.50
2022-12-18T18:41:48.853Z,64.90
2022-12-18T18:44:17.307Z,75.57
2022-12-18T18:46:45.351Z,58.40
2022-12-18T18:49:13.899Z,60.10
2022-12-18T18:51:41.637Z,64.80
2022-12-18T18:54:09.528Z,66.83
2022-12-18T18:59:30.402Z,59.53
2022-12-18T19:02:00.647Z,68.53
2022-12-18T19:04:32.603Z,83.60
2022-12-18T19:07:09.388Z,61.60
2022-12-18T19:09:36.462Z,52.23
2022-12-18T19:12:22.771Z,70.90
2022-12-18T19:14:50.115Z,49.30
2022-12-18T19:17:17.128Z,65.13
2022-12-18T19:19:44.260Z,67.37
2022-12-18T19:22:11.421Z,57.73
2022-12-18T19:24:38.813Z,43.33
2022-12-18T19:27:05.784Z,75.33
2022-12-18T19:29:32.802Z,71.27
2022-12-18T19:32:00.474Z,48.57
2022-12-18T19:34:27.837Z,32.03
2022-12-18T19:36:59.701Z,36.63
2022-12-18T19:39:27.450Z,53.87
2022-12-18T19:41:54.719Z,40.40
2022-12-18T19:44:21.654Z,47.10
2022-12-18T19:46:53.797Z,42.40
2022-12-18T19:49:20.711Z,71.27
2022-12-18T19:51:47.966Z,55.13
2022-12-18T19:54:17.859Z,65.03
2022-12-18T19:56:47.631Z,63.13
2022-12-18T19:59:14.546Z,47.47
2022-12-18T20:01:41.832Z,60.77
2022-12-18T20:04:09.150Z,84.03
2022-12-18T20:06:47.411Z,77.47
2022-12-18T20:09:14.652Z,62.90
2022-12-18T20:11:42.546Z,63.87
2022-12-18T20:14:14.646Z,61.10
2022-12-18T20:16:45.807Z,33.70
2022-12-18T20:19:14.010Z,35.87
2022-12-18T20:21:41.740Z,21.10
2022-12-18T20:24:09.145Z,79.67
2022-12-18T20:26:36.224Z,45.87
2022-12-18T20:29:03.436Z,57.20
2022-12-18T20:31:30.529Z,63.57
2022-12-18T20:34:01.610Z,77.00
2022-12-18T20:36:31.769Z,59.07
2022-12-18T20:39:02.654Z,55.33
2022-12-18T20:41:38.447Z,75.67
2022-12-18T20:44:19.034Z,55.47
2022-12-18T20:46:56.471Z,49.83
2022-12-18T20:49:25.007Z,56.33
2022-12-18T20:51:54.182Z,53.60
2022-12-18T20:54:22.252Z,55.73
2022-12-18T20:56:49.579Z,44.30
2022-12-18T20:59:16.898Z,28.60
2022-12-18T21:01:48.596Z,39.90
2022-12-18T21:04:18.651Z,40.80
2022-12-18T21:06:54.228Z,51.03
2022-12-18T21:09:30.352Z,41.00
2022-12-18T21:12:24.342Z,51.40
2022-12-18T21:14:51.521Z,34.28
2022-12-18T21:17:18.527Z,43.70
2022-12-18T21:19:45.517Z,53.50
2022-12-18T21:22:13.710Z,33.13
2022-12-18T21:24:40.997Z,40.80
2022-12-18T21:27:08.020Z,37.47
2022-12-18T21:29:35.074Z,34.73
2022-12-18T21:32:03.433Z,33.07
2022-12-18T21:34:32.674Z,34.43
2022-12-18T21:37:01.038Z,24.60
2022-12-18T21:39:29.468Z,21.10
2022-12-18T21:42:16.136Z,27.33
2022-12-18T21:44:44.652Z,29.35
2022-12-18T21:47:22.029Z,29.17
2022-12-18T21:49:53.433Z,24.43
2022-12-18T21:52:31.312Z,28.73
2022-12-18T21:55:07.964Z,29.93
2022-12-18T21:57:37.315Z,21.55
2022-12-18T22:00:05.837Z,25.53
2022-12-18T22:02:39.488Z,22.63
2022-12-18T22:05:07.101Z,23.67
2022-12-18T22:07:34.228Z,20.73
2022-12-18T22:10:02.053Z,26.47
2022-12-18T22:12:44.452Z,25.40
2022-12-18T22:15:21.020Z,25.07
2022-12-18T22:17:57.412Z,25.25
2022-12-18T22:20:29.260Z,21.20
2022-12-18T22:22:57.250Z,22.60
2022-12-18T22:25:24.251Z,19.23
2022-12-18T22:28:09.685Z,13.60
2022-12-18T22:30:36.635Z,15.97
2022-12-18T22:33:03.972Z,21.90
2022-12-18T22:35:31.081Z,19.10
2022-12-18T22:38:01.544Z,21.93
2022-12-18T22:40:29.328Z,16.70
2022-12-18T22:42:56.645Z,18.30
2022-12-18T22:45:26.979Z,20.00
2022-12-18T22:47:54.203Z,11.30
2022-12-18T22:50:21.195Z,17.03
2022-12-18T22:52:48.119Z,16.30
2022-12-18T22:55:15.483Z,18.40
2022-12-18T22:57:47.957Z,18.67
2022-12-18T23:00:16.181Z,16.33
2022-12-18T23:02:45.028Z,14.73
2022-12-18T23:05:12.022Z,11.23
2022-12-18T23:07:38.943Z,14.23
2022-12-18T23:10:06.327Z,11.27
2022-12-18T23:12:33.294Z,13.17
2022-12-18T23:15:02.831Z,12.57
2022-12-18T23:17:30.806Z,11.23
2022-12-18T23:19:57.708Z,11.97
2022-12-18T23:22:24.603Z,10.57
2022-12-18T23:24:51.636Z,13.70
2022-12-18T23:27:18.587Z,14.33
2022-12-18T23:29:45.447Z,11.70
2022-12-18T23:32:14.461Z,13.23
2022-12-18T23:34:41.443Z,14.67
2022-12-18T23:37:08.423Z,10.50
2022-12-18T23:39:35.268Z,10.47
2022-12-18T23:42:02.227Z,9.67
2022-12-18T23:44:29.127Z,7.90
2022-12-18T23:46:56.114Z,14.83
2022-12-18T23:49:23.481Z,14.33
2022-12-18T23:51:50.641Z,17.73
2022-12-18T23:54:17.683Z,16.73
2022-12-18T23:56:52.613Z,17.40
2022-12-18T23:59:23.944Z,18.60
